Time;durP1;ratioP1;P1;durP2;ratioP2;P2;SDS_P1;SDS_P2;PMS_P1;PMS_P2;Temp;Humidity;BMP_temperature;BMP_pressure;BME280_temperature;BME280_humidity;BME280_pressure;Samples;Min_cycle;Max_cycle;Signal;HPM_P1;HPM_P2
2022/01/06 00:00:28;;;;;;;14.90;4.72;;;-0.30;97.20;;;;;;5038007;28;20029;-70
2022/01/06 00:02:55;;;;;;;19.52;5.00;;;-0.30;97.60;;;;;;5035972;28;20063;-69
2022/01/06 00:05:20;;;;;;;14.18;5.45;;;-0.30;97.60;;;;;;5034652;28;20440;-69
2022/01/06 00:07:46;;;;;;;12.02;4.72;;;-0.30;97.50;;;;;;5036020;28;20033;-69
2022/01/06 00:10:13;;;;;;;17.17;4.63;;;-0.30;97.30;;;;;;5037170;28;20025;-70
2022/01/06 00:13:03;;;;;;;20.00;5.90;;;-0.30;97.80;;;;;;5037546;28;20078;-69
2022/01/06 00:15:44;;;;;;;20.98;5.75;;;-0.30;97.90;;;;;;5028380;28;20029;-70
2022/01/06 00:18:20;;;;;;;17.65;4.63;;;-0.30;97.80;;;;;;5036072;28;20057;-69
2022/01/06 00:23:34;;;;;;;13.65;5.15;;;-0.20;98.00;;;;;;5036366;28;20052;-70
2022/01/06 00:26:01;;;;;;;10.98;4.60;;;-0.30;98.00;;;;;;5036343;28;20116;-71
2022/01/06 00:28:28;;;;;;;12.50;4.63;;;-0.20;98.00;;;;;;5035859;28;20028;-70
2022/01/06 00:30:54;;;;;;;14.50;4.50;;;-0.20;98.00;;;;;;5025738;28;20416;-70
2022/01/06 00:33:20;;;;;;;11.55;4.43;;;-0.20;98.00;;;;;;5016704;28;20096;-69
2022/01/06 00:35:46;;;;;;;20.33;4.88;;;-0.20;98.00;;;;;;5035873;28;20422;-70
2022/01/06 00:38:11;;;;;;;13.68;5.90;;;-0.20;98.00;;;;;;5019219;28;20040;-71
2022/01/06 00:40:38;;;;;;;24.27;9.85;;;-0.20;98.00;;;;;;5035335;28;20056;-70
2022/01/06 00:43:06;;;;;;;23.55;6.55;;;-0.20;98.00;;;;;;5036948;28;20108;-70
2022/01/06 00:45:33;;;;;;;16.42;4.50;;;-0.20;98.00;;;;;;5036615;28;20027;-70
2022/01/06 00:47:59;;;;;;;12.95;4.88;;;-0.20;98.00;;;;;;5035474;28;20476;-70
2022/01/06 00:50:25;;;;;;;20.27;7.97;;;-0.20;98.00;;;;;;5031118;28;20038;-70
2022/01/06 00:52:51;;;;;;;15.35;5.03;;;-0.20;98.00;;;;;;5036755;28;20070;-71
2022/01/06 00:55:17;;;;;;;12.48;5.28;;;-0.10;98.00;;;;;;5036862;28;20025;-70
2022/01/06 00:57:46;;;;;;;11.98;5.25;;;-0.20;98.00;;;;;;5036704;28;20055;-70
2022/01/06 01:00:12;;;;;;;12.63;5.30;;;-0.10;98.00;;;;;;5036319;28;20033;-70
2022/01/06 01:02:37;;;;;;;23.58;4.82;;;-0.10;98.00;;;;;;5034261;28;20331;-71
2022/01/06 01:05:04;;;;;;;16.02;5.28;;;-0.10;98.00;;;;;;5036206;28;20029;-71
2022/01/06 01:07:29;;;;;;;12.55;4.40;;;-0.20;98.00;;;;;;5036574;28;20417;-70
2022/01/06 01:09:55;;;;;;;13.85;5.00;;;-0.10;98.00;;;;;;5036633;28;20057;-70
2022/01/06 01:12:24;;;;;;;13.68;5.75;;;-0.20;98.00;;;;;;5035954;28;20418;-70
2022/01/06 01:15:06;;;;;;;14.15;4.75;;;-0.20;98.00;;;;;;5035964;28;20096;-70
2022/01/06 01:17:32;;;;;;;8.50;4.05;;;-0.20;98.00;;;;;;5033748;28;20083;-70
2022/01/06 01:20:03;;;;;;;14.05;5.00;;;-0.20;98.00;;;;;;5035567;28;20132;-70
2022/01/06 01:22:29;;;;;;;14.20;4.65;;;-0.20;98.00;;;;;;5035439;28;20353;-71
2022/01/06 01:24:54;;;;;;;15.27;5.20;;;-0.20;98.00;;;;;;5036087;28;20026;-70
2022/01/06 01:27:22;;;;;;;10.75;5.07;;;-0.20;98.00;;;;;;5034377;28;20033;-69
2022/01/06 01:30:03;;;;;;;12.32;5.03;;;-0.20;98.00;;;;;;5036172;28;20022;-71
2022/01/06 01:32:35;;;;;;;12.82;4.75;;;-0.10;98.00;;;;;;5034140;28;20032;-71
2022/01/06 01:35:03;;;;;;;15.68;5.32;;;-0.10;98.00;;;;;;5035519;28;20033;-69
2022/01/06 01:37:32;;;;;;;13.27;4.88;;;-0.10;98.00;;;;;;5035687;28;20029;-69
2022/01/06 01:39:59;;;;;;;13.90;5.28;;;-0.10;98.00;;;;;;5035680;28;20051;-69
2022/01/06 01:42:25;;;;;;;15.13;4.57;;;-0.10;98.00;;;;;;5036171;28;20087;-68
2022/01/06 01:44:52;;;;;;;15.32;5.15;;;-0.10;98.00;;;;;;5035496;28;20049;-69
2022/01/06 01:47:29;;;;;;;17.83;6.00;;;0.00;98.00;;;;;;5034337;28;20029;-72
2022/01/06 01:50:09;;;;;;;13.00;4.63;;;-0.10;98.00;;;;;;5032450;28;20030;-71
2022/01/06 01:52:38;;;;;;;12.25;5.22;;;-0.10;98.00;;;;;;5036007;28;20025;-71
2022/01/06 01:55:05;;;;;;;18.98;5.28;;;0.00;98.00;;;;;;5032480;28;20022;-70
2022/01/06 01:57:33;;;;;;;14.90;4.95;;;0.00;98.00;;;;;;5033944;28;20469;-71
2022/01/06 02:00:05;;;;;;;12.50;4.72;;;0.00;98.00;;;;;;5035503;28;20021;-71
2022/01/06 02:02:31;;;;;;;15.82;4.55;;;0.00;98.00;;;;;;5034112;28;20418;-70
2022/01/06 02:04:56;;;;;;;8.93;4.10;;;0.00;98.00;;;;;;5035445;28;20051;-70
2022/01/06 02:07:22;;;;;;;19.17;4.75;;;0.10;98.00;;;;;;5018015;28;20040;-70
2022/01/06 02:09:48;;;;;;;11.75;4.32;;;0.10;98.00;;;;;;5018385;28;20026;-71
2022/01/06 02:12:28;;;;;;;18.20;5.22;;;0.10;98.00;;;;;;5034810;28;20076;-70
2022/01/06 02:14:54;;;;;;;17.38;4.97;;;0.10;98.00;;;;;;5033384;28;20021;-69
2022/01/06 02:17:20;;;;;;;12.32;4.30;;;0.10;98.00;;;;;;5022521;28;20430;-71
2022/01/06 02:19:56;;;;;;;12.75;4.85;;;0.10;98.00;;;;;;5012405;28;20080;-70
2022/01/06 02:22:22;;;;;;;12.32;4.47;;;0.10;98.00;;;;;;5022225;28;20065;-70
2022/01/06 02:24:49;;;;;;;9.27;4.60;;;0.10;98.00;;;;;;5020653;28;20080;-71
2022/01/06 02:27:15;;;;;;;11.15;4.03;;;0.10;98.00;;;;;;5033771;28;20068;-70
2022/01/06 02:29:42;;;;;;;13.80;5.38;;;0.10;98.00;;;;;;5035181;28;20036;-70
2022/01/06 02:32:15;;;;;;;13.90;5.00;;;0.10;98.00;;;;;;5032605;28;20025;-71
2022/01/06 02:34:41;;;;;;;7.55;4.20;;;0.10;98.00;;;;;;5029261;28;20021;-71
2022/01/06 02:37:07;;;;;;;13.40;4.35;;;0.20;98.00;;;;;;5035182;28;20037;-70
2022/01/06 02:39:33;;;;;;;11.57;4.35;;;0.20;98.00;;;;;;5035133;28;20025;-70
2022/01/06 02:41:58;;;;;;;9.50;4.47;;;0.20;98.00;;;;;;5034920;28;20029;-70
2022/01/06 02:44:25;;;;;;;10.82;4.22;;;0.20;98.00;;;;;;5034634;28;20030;-71
2022/01/06 02:46:53;;;;;;;11.75;5.38;;;0.20;98.00;;;;;;5033824;28;20041;-70
2022/01/06 02:49:19;;;;;;;12.32;5.43;;;0.20;98.00;;;;;;5034642;28;20080;-70
2022/01/06 02:51:45;;;;;;;11.23;3.97;;;0.20;98.00;;;;;;5034890;28;20036;-70
2022/01/06 02:54:12;;;;;;;11.95;5.15;;;0.20;98.00;;;;;;5035132;28;20052;-70
2022/01/06 02:56:39;;;;;;;10.40;4.45;;;0.20;98.00;;;;;;5034445;28;20076;-70
2022/01/06 02:59:04;;;;;;;10.98;5.00;;;0.20;98.00;;;;;;5035154;28;20033;-69
2022/01/06 03:01:30;;;;;;;13.35;5.30;;;0.20;98.00;;;;;;5035447;28;20370;-69
2022/01/06 03:03:56;;;;;;;15.00;5.10;;;0.20;98.00;;;;;;5033618;28;20029;-70
2022/01/06 03:06:21;;;;;;;10.85;5.00;;;0.10;98.00;;;;;;5034671;28;20430;-70
2022/01/06 03:08:47;;;;;;;13.15;5.00;;;0.10;98.00;;;;;;5035034;28;20165;-70
2022/01/06 03:11:12;;;;;;;12.57;4.68;;;0.10;98.00;;;;;;5035027;28;20423;-70
2022/01/06 03:13:38;;;;;;;11.82;4.78;;;0.20;98.00;;;;;;5034506;28;20025;-70
2022/01/06 03:16:04;;;;;;;12.43;4.97;;;0.20;98.00;;;;;;5033911;28;20353;-70
2022/01/06 03:18:30;;;;;;;12.73;4.40;;;0.20;98.00;;;;;;5015587;28;20056;-70
2022/01/06 03:20:56;;;;;;;15.63;5.20;;;0.20;98.00;;;;;;5033069;28;20085;-70
2022/01/06 03:23:21;;;;;;;13.88;5.03;;;0.20;98.00;;;;;;5034708;28;20035;-70
2022/01/06 03:25:47;;;;;;;14.85;5.13;;;0.20;98.00;;;;;;5034411;28;20088;-70
2022/01/06 03:28:16;;;;;;;10.68;4.30;;;0.20;98.00;;;;;;5034462;28;20350;-70
2022/01/06 03:30:41;;;;;;;7.95;3.88;;;0.20;98.00;;;;;;5034696;28;20029;-69
2022/01/06 03:33:07;;;;;;;12.32;4.32;;;0.20;98.00;;;;;;5033542;28;20032;-69
2022/01/06 03:35:35;;;;;;;11.48;4.70;;;0.20;98.00;;;;;;5014559;28;20030;-69
2022/01/06 03:38:01;;;;;;;14.80;5.72;;;0.30;98.00;;;;;;5036373;28;20029;-69
2022/01/06 03:40:27;;;;;;;9.25;4.03;;;0.30;98.00;;;;;;5020763;28;20030;-69
2022/01/06 03:42:52;;;;;;;8.80;3.70;;;0.20;98.00;;;;;;5036956;28;20037;-71
2022/01/06 03:45:19;;;;;;;7.43;3.90;;;0.20;98.00;;;;;;5020861;28;20120;-70
2022/01/06 03:47:45;;;;;;;8.55;4.13;;;0.20;98.00;;;;;;5035824;28;20410;-69
2022/01/06 03:50:13;;;;;;;11.43;4.03;;;0.20;98.00;;;;;;5038122;28;20029;-69
2022/01/06 03:52:39;;;;;;;9.30;4.00;;;0.20;98.00;;;;;;5038197;28;20024;-70
2022/01/06 03:55:09;;;;;;;8.57;3.83;;;0.30;98.00;;;;;;5037016;28;20029;-69
2022/01/06 03:57:34;;;;;;;8.75;3.67;;;0.30;98.00;;;;;;5037374;28;20045;-70
2022/01/06 04:00:01;;;;;;;6.78;3.45;;;0.30;98.00;;;;;;5037302;28;20056;-70
2022/01/06 04:02:30;;;;;;;10.40;3.67;;;0.40;98.00;;;;;;5034983;28;20132;-70
2022/01/06 04:04:55;;;;;;;10.73;3.60;;;0.30;98.00;;;;;;5037043;28;20029;-69
2022/01/06 04:07:24;;;;;;;8.20;3.45;;;0.30;98.00;;;;;;5037625;28;20361;-70
2022/01/06 04:09:50;;;;;;;7.78;3.92;;;0.30;98.00;;;;;;5037134;28;20044;-70
2022/01/06 04:12:15;;;;;;;7.13;3.80;;;0.30;98.00;;;;;;5035050;28;20017;-70
2022/01/06 04:14:43;;;;;;;8.27;3.58;;;0.30;98.00;;;;;;5033375;28;20025;-69
2022/01/06 04:17:09;;;;;;;8.80;3.70;;;0.30;98.00;;;;;;5036321;28;20033;-69
2022/01/06 04:19:35;;;;;;;7.00;4.00;;;0.30;98.00;;;;;;5036588;28;20026;-69
2022/01/06 04:22:05;;;;;;;10.85;3.97;;;0.30;98.00;;;;;;5037393;28;20346;-70
2022/01/06 04:24:32;;;;;;;10.93;4.63;;;0.30;98.00;;;;;;5036730;28;20029;-69
2022/01/06 04:26:57;;;;;;;8.18;4.43;;;0.40;98.00;;;;;;5037110;28;20442;-70
2022/01/06 04:29:23;;;;;;;8.90;3.97;;;0.40;98.00;;;;;;5035104;28;20021;-68
2022/01/06 04:31:49;;;;;;;11.00;4.97;;;0.40;98.00;;;;;;5035432;28;20033;-68
2022/01/06 04:34:15;;;;;;;8.30;4.25;;;0.40;98.00;;;;;;5036599;28;20018;-68
2022/01/06 04:36:47;;;;;;;9.57;4.97;;;0.30;98.00;;;;;;5036192;28;20036;-67
2022/01/06 04:39:16;;;;;;;7.53;4.07;;;0.20;98.00;;;;;;5037040;28;20033;-68
2022/01/06 04:41:44;;;;;;;7.03;3.90;;;0.30;98.00;;;;;;5037308;28;20044;-70
2022/01/06 04:44:10;;;;;;;7.68;4.47;;;0.30;98.00;;;;;;5036850;28;20322;-69
2022/01/06 04:46:36;;;;;;;11.82;4.43;;;0.30;98.00;;;;;;5037126;28;20033;-72
2022/01/06 04:49:04;;;;;;;10.63;4.78;;;0.20;98.00;;;;;;5034469;28;20381;-70
2022/01/06 04:51:30;;;;;;;12.40;4.90;;;0.20;98.00;;;;;;5037146;28;20025;-70
2022/01/06 04:53:56;;;;;;;10.35;5.53;;;0.20;97.90;;;;;;5037071;28;20036;-70
2022/01/06 04:56:22;;;;;;;10.23;4.55;;;0.20;97.70;;;;;;5036661;28;20326;-69
2022/01/06 04:58:48;;;;;;;11.80;5.90;;;0.20;97.30;;;;;;5037262;28;20108;-69
2022/01/06 05:01:14;;;;;;;10.95;4.60;;;0.20;97.40;;;;;;5019204;28;20029;-69
2022/01/06 05:03:43;;;;;;;10.73;5.13;;;0.20;97.10;;;;;;5035626;28;20034;-71
2022/01/06 05:06:09;;;;;;;12.75;6.65;;;0.20;97.00;;;;;;5036679;28;20032;-70
2022/01/06 05:08:34;;;;;;;9.75;5.25;;;0.20;96.90;;;;;;5035827;28;20030;-70
2022/01/06 05:11:00;;;;;;;13.60;6.18;;;0.10;96.90;;;;;;5036542;28;20044;-70
2022/01/06 05:13:26;;;;;;;14.23;6.60;;;0.10;96.40;;;;;;5036956;28;20026;-70
2022/01/06 05:15:52;;;;;;;13.82;6.93;;;0.10;96.30;;;;;;5036487;28;20370;-70
2022/01/06 05:18:18;;;;;;;10.60;6.28;;;0.10;96.00;;;;;;5035052;28;20044;-70
2022/01/06 05:20:43;;;;;;;12.25;6.57;;;0.10;95.70;;;;;;5036271;28;20038;-69
2022/01/06 05:23:13;;;;;;;10.90;5.38;;;0.10;95.50;;;;;;5036740;28;20318;-71
2022/01/06 05:25:40;;;;;;;10.95;5.75;;;0.10;95.00;;;;;;5035266;28;20441;-69
2022/01/06 05:28:05;;;;;;;14.25;6.35;;;0.10;94.70;;;;;;5036432;28;20414;-70
2022/01/06 05:30:31;;;;;;;13.43;6.45;;;0.00;94.80;;;;;;5036523;28;20025;-69
2022/01/06 05:32:57;;;;;;;12.05;6.18;;;0.00;94.60;;;;;;5034589;28;20025;-69
2022/01/06 05:35:22;;;;;;;12.18;6.25;;;0.00;94.70;;;;;;5035546;28;20105;-68
2022/01/06 05:37:48;;;;;;;13.27;5.47;;;0.00;94.50;;;;;;5035955;28;20096;-69
2022/01/06 05:40:17;;;;;;;10.10;5.40;;;0.00;94.40;;;;;;5035827;28;20025;-69
2022/01/06 05:42:42;;;;;;;12.18;5.65;;;0.00;94.10;;;;;;5034011;28;20030;-69
2022/01/06 05:45:09;;;;;;;8.90;5.35;;;0.00;93.70;;;;;;5035636;28;20026;-69
2022/01/06 05:47:35;;;;;;;9.50;5.45;;;0.00;94.30;;;;;;5034672;28;20022;-69
2022/01/06 05:50:02;;;;;;;9.68;5.93;;;0.00;94.00;;;;;;5018415;28;20064;-70
2022/01/06 05:52:27;;;;;;;10.07;6.03;;;0.00;93.90;;;;;;5036073;28;20021;-70
2022/01/06 05:54:53;;;;;;;13.73;5.07;;;0.00;94.00;;;;;;5036096;28;20302;-70
2022/01/06 05:57:19;;;;;;;8.02;5.03;;;0.00;94.00;;;;;;5035838;28;20037;-71
2022/01/06 05:59:48;;;;;;;9.00;5.05;;;0.00;94.40;;;;;;5034949;28;20026;-69
2022/01/06 06:02:13;;;;;;;7.50;4.57;;;0.10;94.50;;;;;;5034552;28;20083;-69
2022/01/06 06:04:39;;;;;;;9.07;4.50;;;0.10;94.80;;;;;;5035832;28;20112;-71
2022/01/06 06:07:05;;;;;;;10.50;4.93;;;0.10;95.00;;;;;;5034606;28;20025;-71
2022/01/06 06:09:30;;;;;;;9.48;4.13;;;0.10;95.40;;;;;;5035880;28;20044;-70
2022/01/06 06:11:56;;;;;;;7.78;3.80;;;0.10;95.40;;;;;;5036042;28;20031;-70
2022/01/06 06:14:22;;;;;;;6.03;3.17;;;0.10;96.00;;;;;;5035153;28;20021;-71
2022/01/06 06:16:47;;;;;;;7.00;3.60;;;0.10;96.50;;;;;;5033929;28;20025;-70
2022/01/06 06:19:13;;;;;;;6.55;3.60;;;0.10;96.30;;;;;;5035401;28;20057;-70
2022/01/06 06:21:39;;;;;;;6.82;3.65;;;0.20;96.50;;;;;;5035443;28;20057;-70
2022/01/06 06:24:05;;;;;;;6.45;3.03;;;0.20;96.70;;;;;;5035689;28;20108;-70
2022/01/06 06:26:31;;;;;;;8.98;3.80;;;0.20;97.70;;;;;;5035933;28;20021;-71
2022/01/06 06:28:57;;;;;;;10.70;4.00;;;0.20;97.60;;;;;;5017618;28;20033;-71
2022/01/06 06:31:22;;;;;;;10.52;5.57;;;0.20;97.20;;;;;;5035936;28;20026;-70
2022/01/06 06:33:48;;;;;;;8.90;4.70;;;0.20;97.20;;;;;;5034175;28;20028;-70
2022/01/06 06:36:14;;;;;;;8.15;5.05;;;0.20;97.10;;;;;;5035283;28;20065;-70
2022/01/06 06:38:39;;;;;;;8.88;4.55;;;0.20;97.20;;;;;;5035421;28;20087;-70
2022/01/06 06:41:05;;;;;;;7.30;4.00;;;0.20;97.20;;;;;;5035383;28;20065;-70
2022/01/06 06:43:30;;;;;;;8.23;4.07;;;0.20;97.20;;;;;;5035949;28;20033;-70
2022/01/06 06:45:56;;;;;;;7.93;4.10;;;0.30;97.60;;;;;;5034858;28;20041;-70
2022/01/06 06:48:24;;;;;;;8.25;3.65;;;0.30;97.80;;;;;;5033798;28;20022;-70
2022/01/06 06:50:50;;;;;;;6.35;3.38;;;0.30;98.00;;;;;;5035471;28;20057;-71
2022/01/06 06:53:18;;;;;;;8.52;4.82;;;0.30;98.00;;;;;;5033574;28;20041;-70
2022/01/06 06:55:45;;;;;;;6.30;3.92;;;0.30;98.00;;;;;;5035597;28;20067;-70
2022/01/06 06:58:11;;;;;;;6.45;3.63;;;0.30;98.00;;;;;;5017619;28;20453;-70
2022/01/06 07:00:36;;;;;;;7.13;3.75;;;0.30;98.00;;;;;;5034364;28;20065;-70
2022/01/06 07:03:02;;;;;;;8.43;4.20;;;0.30;98.00;;;;;;5034285;28;20029;-69
2022/01/06 07:05:29;;;;;;;7.32;4.57;;;0.30;98.00;;;;;;5034901;28;20033;-69
2022/01/06 07:07:55;;;;;;;9.85;5.25;;;0.40;98.00;;;;;;5035058;28;20353;-69
2022/01/06 07:10:20;;;;;;;8.45;5.40;;;0.30;98.00;;;;;;5035193;28;20025;-70
2022/01/06 07:12:46;;;;;;;9.77;4.70;;;0.30;98.00;;;;;;5038694;28;20021;-69
2022/01/06 07:15:14;;;;;;;7.13;4.03;;;0.40;98.00;;;;;;5038640;28;20021;-70
2022/01/06 07:17:40;;;;;;;7.60;4.38;;;0.30;98.00;;;;;;5026491;28;20021;-70
2022/01/06 07:20:06;;;;;;;10.57;5.05;;;0.30;98.00;;;;;;5038672;28;20216;-71
2022/01/06 07:22:36;;;;;;;13.45;5.25;;;0.40;98.00;;;;;;5037281;28;20044;-70
2022/01/06 07:25:02;;;;;;;8.98;5.25;;;0.40;98.00;;;;;;5038687;28;20013;-69
2022/01/06 07:27:27;;;;;;;9.52;4.88;;;0.40;98.00;;;;;;5038824;28;20083;-69
2022/01/06 07:29:56;;;;;;;10.25;5.25;;;0.40;98.00;;;;;;5038304;28;20013;-69
2022/01/06 07:32:24;;;;;;;12.35;5.28;;;0.40;98.00;;;;;;5037062;28;20044;-69
2022/01/06 07:34:50;;;;;;;9.27;5.25;;;0.40;98.00;;;;;;5019443;28;20025;-69
2022/01/06 07:37:15;;;;;;;9.43;5.05;;;0.40;98.00;;;;;;5019608;28;20032;-71
2022/01/06 07:39:41;;;;;;;15.48;6.28;;;0.40;98.00;;;;;;5037476;28;20325;-71
2022/01/06 07:42:07;;;;;;;9.57;4.82;;;0.50;98.00;;;;;;5037807;28;20034;-70
2022/01/06 07:44:33;;;;;;;13.88;6.50;;;0.50;98.00;;;;;;5037151;28;20075;-70
2022/01/06 07:47:01;;;;;;;16.00;6.25;;;0.50;98.00;;;;;;5036695;28;20056;-70
2022/01/06 07:49:28;;;;;;;17.50;8.85;;;0.50;98.00;;;;;;5038203;28;20029;-70
2022/01/06 07:51:54;;;;;;;16.42;9.48;;;0.50;98.00;;;;;;5020063;28;20025;-70
2022/01/06 07:54:20;;;;;;;13.27;7.18;;;0.50;98.00;;;;;;5037587;28;20025;-69
2022/01/06 07:56:46;;;;;;;8.95;6.68;;;0.50;98.00;;;;;;5037457;28;20045;-70
2022/01/06 07:59:12;;;;;;;9.82;6.95;;;0.50;98.00;;;;;;5037987;28;20033;-69
2022/01/06 08:01:38;;;;;;;20.02;10.02;;;0.50;98.00;;;;;;5036054;28;20040;-71
2022/01/06 08:04:03;;;;;;;12.73;8.50;;;0.50;98.00;;;;;;5035649;28;20072;-70
2022/01/06 08:06:29;;;;;;;13.85;8.88;;;0.50;98.00;;;;;;5036210;28;20080;-70
2022/01/06 08:08:55;;;;;;;12.38;6.95;;;0.50;98.00;;;;;;5037821;28;20017;-70
2022/01/06 08:11:20;;;;;;;11.02;5.60;;;0.50;98.00;;;;;;5036049;28;20349;-69
2022/01/06 08:13:46;;;;;;;10.30;5.65;;;0.50;98.00;;;;;;5017071;28;20026;-69
2022/01/06 08:16:12;;;;;;;20.63;10.45;;;0.60;98.00;;;;;;5028347;28;20037;-68
2022/01/06 08:18:37;;;;;;;10.45;6.45;;;0.60;98.00;;;;;;5036221;28;20025;-70
2022/01/06 08:21:03;;;;;;;10.95;6.30;;;0.60;98.00;;;;;;5037365;28;20049;-68
2022/01/06 08:23:29;;;;;;;9.20;5.40;;;0.70;98.00;;;;;;5030668;28;20033;-69
2022/01/06 08:25:55;;;;;;;13.20;8.73;;;0.80;98.00;;;;;;5016608;28;20037;-70
2022/01/06 08:28:21;;;;;;;12.35;5.93;;;0.90;98.00;;;;;;5031200;28;20018;-69
2022/01/06 08:30:47;;;;;;;12.48;7.20;;;0.80;98.00;;;;;;5032183;28;20433;-70
2022/01/06 08:33:13;;;;;;;7.18;5.20;;;0.80;98.00;;;;;;5033887;28;20036;-69
2022/01/06 08:35:39;;;;;;;7.15;4.75;;;0.80;98.00;;;;;;5037213;28;20022;-70
2022/01/06 08:38:04;;;;;;;8.60;5.10;;;0.90;98.00;;;;;;5037724;28;20037;-69
2022/01/06 08:40:31;;;;;;;8.50;4.00;;;1.00;98.00;;;;;;5034347;28;20086;-69
2022/01/06 08:42:57;;;;;;;11.98;5.70;;;1.00;98.00;;;;;;5036124;28;20079;-70
2022/01/06 08:45:23;;;;;;;21.25;10.40;;;1.00;98.00;;;;;;5036896;28;20430;-69
2022/01/06 08:47:48;;;;;;;11.60;6.55;;;1.00;98.00;;;;;;5035653;28;20032;-69
2022/01/06 08:50:15;;;;;;;14.70;6.68;;;1.10;98.00;;;;;;5036340;28;20021;-72
2022/01/06 08:52:41;;;;;;;12.30;5.75;;;1.10;98.00;;;;;;5035344;28;20096;-69
2022/01/06 08:55:08;;;;;;;32.17;13.38;;;1.00;98.00;;;;;;5031756;28;20101;-71
2022/01/06 08:57:36;;;;;;;21.20;9.60;;;0.90;98.00;;;;;;5025472;28;20116;-70
2022/01/06 09:00:06;;;;;;;10.38;4.72;;;0.90;98.00;;;;;;5034887;28;20033;-68
2022/01/06 09:02:32;;;;;;;11.25;6.07;;;0.90;98.00;;;;;;5033848;28;20108;-70
2022/01/06 09:04:59;;;;;;;10.05;5.28;;;0.90;98.00;;;;;;5037161;28;20155;-69
2022/01/06 09:07:25;;;;;;;7.03;4.13;;;1.10;98.00;;;;;;5036480;28;20029;-70
2022/01/06 09:09:51;;;;;;;7.88;4.88;;;1.00;98.00;;;;;;5036381;28;20022;-70
2022/01/06 09:12:18;;;;;;;8.10;4.90;;;1.10;98.00;;;;;;5018439;28;20112;-69
2022/01/06 09:14:47;;;;;;;7.38;4.68;;;1.10;98.00;;;;;;5036079;28;20022;-69
2022/01/06 09:17:14;;;;;;;7.90;4.57;;;1.20;98.00;;;;;;5035870;28;20022;-70
2022/01/06 09:19:39;;;;;;;9.15;4.10;;;1.20;98.00;;;;;;5035698;28;20033;-70
2022/01/06 09:22:05;;;;;;;10.18;5.10;;;1.20;98.00;;;;;;5035454;28;20084;-69
2022/01/06 09:24:31;;;;;;;8.95;3.72;;;1.20;98.00;;;;;;5036676;28;20037;-69
2022/01/06 09:26:56;;;;;;;11.10;6.65;;;1.30;98.00;;;;;;5035132;28;20036;-70
2022/01/06 09:29:22;;;;;;;13.85;6.32;;;1.20;98.00;;;;;;5035517;28;20067;-70
2022/01/06 09:31:48;;;;;;;13.68;7.88;;;1.20;98.00;;;;;;5033912;28;20017;-70
2022/01/06 09:34:13;;;;;;;11.48;6.80;;;1.20;98.00;;;;;;5035079;28;20330;-69
2022/01/06 09:36:40;;;;;;;12.23;5.68;;;1.30;98.00;;;;;;5034340;28;20025;-69
2022/01/06 09:39:09;;;;;;;13.55;7.18;;;1.40;98.00;;;;;;5031926;28;20079;-70
2022/01/06 09:41:35;;;;;;;13.43;7.22;;;1.40;98.00;;;;;;5035057;28;20022;-69
2022/01/06 09:44:01;;;;;;;8.95;4.07;;;1.50;98.00;;;;;;5034204;28;20079;-70
2022/01/06 09:46:30;;;;;;;10.82;5.00;;;1.40;98.00;;;;;;5035441;28;20029;-70
2022/01/06 09:48:59;;;;;;;10.65;5.15;;;1.30;98.00;;;;;;5034148;28;20318;-71
2022/01/06 09:51:27;;;;;;;11.20;6.07;;;1.40;98.00;;;;;;5034884;28;20414;-70
2022/01/06 09:53:55;;;;;;;10.30;5.95;;;1.50;98.00;;;;;;5036010;28;20083;-70
2022/01/06 09:56:21;;;;;;;12.70;5.68;;;1.60;98.00;;;;;;5035349;28;20061;-70
2022/01/06 09:58:47;;;;;;;12.57;5.45;;;1.50;98.00;;;;;;5035610;28;20040;-69
2022/01/06 10:01:13;;;;;;;13.07;5.65;;;1.40;98.00;;;;;;5014142;28;20026;-71
2022/01/06 10:03:45;;;;;;;9.85;5.53;;;1.50;98.00;;;;;;5034663;28;20373;-71
2022/01/06 10:06:21;;;;;;;11.50;5.35;;;1.50;98.00;;;;;;5033122;28;20371;-71
2022/01/06 10:08:52;;;;;;;10.57;4.40;;;1.50;98.00;;;;;;5035386;28;20021;-70
2022/01/06 10:11:24;;;;;;;11.50;5.00;;;1.30;98.00;;;;;;5017745;28;20116;-71
2022/01/06 10:13:59;;;;;;;13.73;5.35;;;1.30;98.00;;;;;;5033821;28;20032;-70
2022/01/06 10:16:26;;;;;;;11.60;5.28;;;1.30;98.00;;;;;;5020914;28;20033;-71
2022/01/06 10:18:57;;;;;;;17.23;7.63;;;1.20;98.00;;;;;;5029705;28;20357;-70
2022/01/06 10:21:23;;;;;;;32.20;14.90;;;1.30;98.00;;;;;;5035348;28;20390;-69
2022/01/06 10:24:04;;;;;;;18.10;9.15;;;1.30;98.00;;;;;;5034990;28;20736;-69
2022/01/06 10:26:30;;;;;;;16.70;8.80;;;1.40;98.00;;;;;;5034166;28;20033;-69
2022/01/06 10:29:00;;;;;;;11.95;5.20;;;1.50;98.00;;;;;;5035226;28;20354;-69
2022/01/06 10:31:28;;;;;;;16.08;6.25;;;1.50;98.00;;;;;;5035251;28;20109;-71
2022/01/06 10:33:54;;;;;;;14.75;6.80;;;1.40;98.00;;;;;;5034024;28;20036;-72
2022/01/06 10:36:27;;;;;;;13.75;6.90;;;1.40;98.00;;;;;;5035322;28;20029;-70
2022/01/06 10:38:55;;;;;;;10.45;5.55;;;1.50;98.00;;;;;;5034663;28;20021;-72
2022/01/06 10:41:21;;;;;;;12.35;6.55;;;1.70;98.00;;;;;;5033518;28;20067;-72
2022/01/06 10:43:57;;;;;;;12.68;7.95;;;1.90;98.00;;;;;;5035078;28;20057;-72
2022/01/06 10:46:36;;;;;;;12.35;6.05;;;2.10;98.00;;;;;;5036204;28;20029;-72
2022/01/06 10:49:08;;;;;;;13.75;5.25;;;2.40;98.00;;;;;;5037996;28;20022;-72
2022/01/06 10:51:46;;;;;;;12.00;7.00;;;2.40;98.00;;;;;;5039600;28;20017;-71
2022/01/06 10:54:23;;;;;;;13.07;7.22;;;2.50;98.00;;;;;;5038792;28;20018;-72
2022/01/06 10:57:17;;;;;;;13.18;6.97;;;2.30;98.00;;;;;;5038046;28;20029;-72
2022/01/06 10:59:45;;;;;;;14.70;9.00;;;2.30;98.00;;;;;;5035570;28;20040;-72
2022/01/06 11:02:24;;;;;;;14.57;7.03;;;2.30;98.00;;;;;;5037109;28;20025;-72
2022/01/06 11:04:50;;;;;;;10.30;5.88;;;2.30;98.00;;;;;;5038764;28;20101;-73
2022/01/06 11:07:16;;;;;;;16.23;7.63;;;2.30;98.00;;;;;;5038073;28;20124;-71
2022/01/06 11:09:46;;;;;;;11.82;5.10;;;2.30;98.00;;;;;;5036781;28;20098;-72
2022/01/06 11:12:26;;;;;;;11.75;5.93;;;2.40;98.00;;;;;;5039090;28;20017;-71
2022/01/06 11:14:56;;;;;;;9.63;5.45;;;2.30;98.00;;;;;;5031625;28;20365;-72
2022/01/06 11:17:23;;;;;;;15.18;7.28;;;2.30;98.00;;;;;;5037425;28;20022;-72
2022/01/06 11:19:52;;;;;;;13.98;6.60;;;2.30;98.00;;;;;;5038398;28;20025;-72
2022/01/06 11:22:23;;;;;;;17.25;8.38;;;2.30;98.00;;;;;;5037879;28;20099;-71
2022/01/06 11:24:54;;;;;;;13.85;7.55;;;2.10;98.00;;;;;;5038257;28;20410;-72
2022/01/06 11:27:33;;;;;;;9.80;5.88;;;1.90;98.00;;;;;;5038851;28;20034;-72
2022/01/06 11:30:15;;;;;;;13.73;6.95;;;1.80;98.00;;;;;;5037646;28;20108;-72
2022/01/06 11:32:42;;;;;;;10.65;6.10;;;1.70;98.00;;;;;;5026416;28;20104;-72
2022/01/06 11:35:26;;;;;;;11.65;6.43;;;1.60;98.00;;;;;;5036498;28;20079;-71
2022/01/06 11:37:52;;;;;;;12.43;6.80;;;1.50;98.00;;;;;;5036319;28;20430;-71
2022/01/06 11:40:33;;;;;;;12.63;6.88;;;1.50;98.00;;;;;;5038985;28;20041;-72
2022/01/06 11:42:59;;;;;;;11.65;7.40;;;1.50;98.00;;;;;;5035456;28;20100;-73
2022/01/06 11:45:26;;;;;;;12.32;7.97;;;1.60;98.00;;;;;;5028833;28;20119;-72
2022/01/06 11:48:10;;;;;;;19.88;11.23;;;1.80;98.00;;;;;;5036705;28;20426;-71
2022/01/06 11:50:38;;;;;;;18.45;8.60;;;2.00;98.00;;;;;;5038422;28;20036;-71
2022/01/06 11:53:04;;;;;;;10.43;6.47;;;2.00;98.00;;;;;;5038092;28;20032;-72
2022/01/06 11:55:41;;;;;;;13.88;8.13;;;1.90;98.00;;;;;;5037739;28;20414;-72
2022/01/06 11:58:23;;;;;;;14.07;7.97;;;1.80;98.00;;;;;;5037050;28;20432;-72
2022/01/06 12:01:05;;;;;;;15.98;7.47;;;1.80;98.00;;;;;;5037845;28;20406;-72
2022/01/06 12:03:45;;;;;;;10.73;6.30;;;2.10;98.00;;;;;;5036539;28;20013;-72
2022/01/06 12:06:31;;;;;;;13.10;7.15;;;2.80;98.00;;;;;;5036437;28;20036;-72
2022/01/06 12:08:58;;;;;;;12.32;5.55;;;3.20;98.00;;;;;;5036676;28;20512;-71
2022/01/06 12:11:33;;;;;;;9.32;5.07;;;3.70;98.00;;;;;;5037939;28;20029;-71
2022/01/06 12:14:00;;;;;;;8.05;4.07;;;3.90;98.00;;;;;;5038188;28;20418;-71
2022/01/06 12:16:29;;;;;;;7.75;3.97;;;4.30;98.00;;;;;;5037421;28;20441;-71
2022/01/06 12:18:55;;;;;;;7.28;3.80;;;4.90;97.80;;;;;;5036855;28;20362;-71
2022/01/06 12:21:22;;;;;;;7.10;4.22;;;5.20;96.20;;;;;;5036716;28;20057;-72
2022/01/06 12:24:02;;;;;;;10.02;5.38;;;4.90;95.60;;;;;;5037308;28;20156;-71
2022/01/06 12:26:31;;;;;;;7.82;4.03;;;4.50;95.60;;;;;;5036882;28;20037;-70
2022/01/06 12:28:56;;;;;;;7.90;4.30;;;3.90;96.40;;;;;;5037432;28;20021;-71
2022/01/06 12:31:24;;;;;;;7.40;3.90;;;3.60;98.00;;;;;;5037548;28;20036;-70
2022/01/06 12:33:58;;;;;;;7.18;3.72;;;3.20;98.00;;;;;;5035280;28;20347;-71
2022/01/06 12:36:30;;;;;;;8.85;4.60;;;2.70;98.00;;;;;;5035822;28;20393;-71
2022/01/06 12:38:56;;;;;;;8.05;4.03;;;2.70;98.00;;;;;;5027324;28;20060;-71
2022/01/06 12:41:28;;;;;;;8.10;3.78;;;2.80;98.00;;;;;;5037448;28;20096;-71
2022/01/06 12:43:55;;;;;;;7.47;3.67;;;3.00;98.00;;;;;;5016236;28;20427;-71
2022/01/06 12:46:23;;;;;;;7.75;4.18;;;3.30;98.00;;;;;;5026407;28;20052;-71
2022/01/06 12:48:51;;;;;;;8.27;4.03;;;3.40;98.00;;;;;;5032909;28;20426;-71
2022/01/06 12:51:25;;;;;;;10.05;4.93;;;3.30;98.00;;;;;;5020812;28;20064;-70
2022/01/06 12:53:59;;;;;;;8.27;4.95;;;3.20;97.90;;;;;;5034407;28;20049;-70